sensor_id;sensor_type;location;lat;lon;timestamp;pressure;altitude;pressure_sealevel;temperature;humidity
40384;BME280;26097;42.366;23.818;2023-01-06T00:02:50;94378.31;;;8.42;63.73
40384;BME280;26097;42.366;23.818;2023-01-06T00:05:56;94355.66;;;8.59;63.07
40384;BME280;26097;42.366;23.818;2023-01-06T00:08:59;94378.47;;;8.68;63.32
40384;BME280;26097;42.366;23.818;2023-01-06T00:12:01;94375.13;;;8.66;63.67
40384;BME280;26097;42.366;23.818;2023-01-06T00:15:03;94388.56;;;8.73;64.74
40384;BME280;26097;42.366;23.818;2023-01-06T00:18:04;94381.28;;;8.65;65.13
40384;BME280;26097;42.366;23.818;2023-01-06T00:21:05;94398.31;;;8.69;65.00
40384;BME280;26097;42.366;23.818;2023-01-06T00:24:06;94389.59;;;8.70;65.55
40384;BME280;26097;42.366;23.818;2023-01-06T00:27:06;94390.81;;;8.65;65.76
40384;BME280;26097;42.366;23.818;2023-01-06T00:30:07;94402.06;;;8.65;65.85
40384;BME280;26097;42.366;23.818;2023-01-06T00:33:08;94408.00;;;8.67;65.77
40384;BME280;26097;42.366;23.818;2023-01-06T00:36:10;94403.72;;;8.66;66.45
40384;BME280;26097;42.366;23.818;2023-01-06T00:39:12;94410.75;;;8.64;66.44
40384;BME280;26097;42.366;23.818;2023-01-06T00:42:12;94405.19;;;8.70;66.61
40384;BME280;26097;42.366;23.818;2023-01-06T00:45:13;94413.31;;;8.79;65.91
40384;BME280;26097;42.366;23.818;2023-01-06T00:48:13;94410.84;;;8.77;66.69
40384;BME280;26097;42.366;23.818;2023-01-06T00:51:13;94419.72;;;8.73;65.97
40384;BME280;26097;42.366;23.818;2023-01-06T00:54:14;94440.38;;;8.76;66.03
40384;BME280;26097;42.366;23.818;2023-01-06T00:57:15;94422.25;;;8.75;65.88
40384;BME280;26097;42.366;23.818;2023-01-06T01:00:15;94433.03;;;8.68;65.77
40384;BME280;26097;42.366;23.818;2023-01-06T01:03:16;94438.44;;;8.65;65.58
40384;BME280;26097;42.366;23.818;2023-01-06T01:06:16;94435.84;;;8.65;65.19
40384;BME280;26097;42.366;23.818;2023-01-06T01:09:23;94449.19;;;8.59;65.71
40384;BME280;26097;42.366;23.818;2023-01-06T01:12:24;94446.31;;;8.49;65.99
40384;BME280;26097;42.366;23.818;2023-01-06T01:15:24;94455.88;;;8.49;66.71
40384;BME280;26097;42.366;23.818;2023-01-06T01:18:25;94461.28;;;8.46;68.92
40384;BME280;26097;42.366;23.818;2023-01-06T01:21:25;94448.63;;;8.39;70.13
40384;BME280;26097;42.366;23.818;2023-01-06T01:24:25;94451.44;;;8.36;70.76
40384;BME280;26097;42.366;23.818;2023-01-06T01:27:26;94445.69;;;8.31;71.96
40384;BME280;26097;42.366;23.818;2023-01-06T01:30:26;94438.91;;;8.28;72.50
40384;BME280;26097;42.366;23.818;2023-01-06T01:33:30;94437.50;;;8.23;73.40
40384;BME280;26097;42.366;23.818;2023-01-06T01:36:31;94443.63;;;8.22;73.53
40384;BME280;26097;42.366;23.818;2023-01-06T01:39:31;94452.34;;;8.21;72.67
40384;BME280;26097;42.366;23.818;2023-01-06T01:42:32;94451.81;;;8.15;72.56
40384;BME280;26097;42.366;23.818;2023-01-06T01:45:32;94446.63;;;8.15;72.59
40384;BME280;26097;42.366;23.818;2023-01-06T01:48:34;94449.41;;;8.12;72.42
40384;BME280;26097;42.366;23.818;2023-01-06T01:51:38;94438.28;;;8.10;72.32
40384;BME280;26097;42.366;23.818;2023-01-06T01:54:40;94447.94;;;8.08;72.68
40384;BME280;26097;42.366;23.818;2023-01-06T01:57:49;94429.63;;;8.10;72.28
40384;BME280;26097;42.366;23.818;2023-01-06T02:00:51;94440.97;;;8.09;72.47
40384;BME280;26097;42.366;23.818;2023-01-06T02:03:52;94436.81;;;8.06;72.70
40384;BME280;26097;42.366;23.818;2023-01-06T02:06:52;94430.47;;;7.96;73.41
40384;BME280;26097;42.366;23.818;2023-01-06T02:10:01;94432.16;;;7.97;73.90
40384;BME280;26097;42.366;23.818;2023-01-06T02:13:03;94435.75;;;7.94;74.34
40384;BME280;26097;42.366;23.818;2023-01-06T02:16:24;94422.03;;;7.92;74.68
40384;BME280;26097;42.366;23.818;2023-01-06T02:42:52;94407.88;;;7.69;79.86
40384;BME280;26097;42.366;23.818;2023-01-06T02:46:07;94399.88;;;7.72;81.04
40384;BME280;26097;42.366;23.818;2023-01-06T02:52:46;94398.19;;;7.56;82.02
40384;BME280;26097;42.366;23.818;2023-01-06T02:55:52;94388.53;;;7.44;82.89
40384;BME280;26097;42.366;23.818;2023-01-06T02:59:22;94384.09;;;7.32;84.33
40384;BME280;26097;42.366;23.818;2023-01-06T03:02:24;94385.19;;;7.27;85.41
40384;BME280;26097;42.366;23.818;2023-01-06T03:05:27;94373.41;;;7.22;85.69
40384;BME280;26097;42.366;23.818;2023-01-06T03:08:29;94377.13;;;7.18;86.55
40384;BME280;26097;42.366;23.818;2023-01-06T03:11:32;94369.50;;;7.14;86.60
40384;BME280;26097;42.366;23.818;2023-01-06T03:14:38;94371.22;;;6.99;87.81
40384;BME280;26097;42.366;23.818;2023-01-06T03:17:39;94381.03;;;6.94;88.71
40384;BME280;26097;42.366;23.818;2023-01-06T03:20:40;94380.19;;;6.94;89.26
40384;BME280;26097;42.366;23.818;2023-01-06T03:23:41;94380.28;;;6.92;88.78
40384;BME280;26097;42.366;23.818;2023-01-06T03:26:43;94379.88;;;6.84;88.90
40384;BME280;26097;42.366;23.818;2023-01-06T03:29:44;94383.59;;;6.64;89.94
40384;BME280;26097;42.366;23.818;2023-01-06T03:36:06;94389.34;;;6.69;90.05
40384;BME280;26097;42.366;23.818;2023-01-06T03:39:14;94383.25;;;6.70;90.25
40384;BME280;26097;42.366;23.818;2023-01-06T03:42:28;94360.88;;;6.53;91.36
40384;BME280;26097;42.366;23.818;2023-01-06T03:46:04;94353.94;;;6.37;91.32
40384;BME280;26097;42.366;23.818;2023-01-06T03:49:16;94353.13;;;6.21;92.41
40384;BME280;26097;42.366;23.818;2023-01-06T03:52:26;94361.63;;;6.07;94.30
40384;BME280;26097;42.366;23.818;2023-01-06T03:55:32;94368.03;;;5.99;94.59
40384;BME280;26097;42.366;23.818;2023-01-06T03:58:36;94379.19;;;6.18;92.60
40384;BME280;26097;42.366;23.818;2023-01-06T04:01:38;94398.31;;;6.31;91.41
40384;BME280;26097;42.366;23.818;2023-01-06T04:04:42;94404.47;;;6.45;89.34
40384;BME280;26097;42.366;23.818;2023-01-06T04:07:42;94412.56;;;6.54;88.33
40384;BME280;26097;42.366;23.818;2023-01-06T04:10:43;94418.81;;;6.66;86.71
40384;BME280;26097;42.366;23.818;2023-01-06T04:13:44;94425.19;;;6.77;85.52
40384;BME280;26097;42.366;23.818;2023-01-06T04:16:44;94423.66;;;6.89;83.77
40384;BME280;26097;42.366;23.818;2023-01-06T04:19:45;94427.66;;;6.94;83.28
40384;BME280;26097;42.366;23.818;2023-01-06T04:22:45;94458.19;;;6.89;83.90
40384;BME280;26097;42.366;23.818;2023-01-06T04:25:46;94433.03;;;6.91;84.16
40384;BME280;26097;42.366;23.818;2023-01-06T04:28:46;94425.50;;;6.86;83.66
40384;BME280;26097;42.366;23.818;2023-01-06T04:31:46;94447.50;;;6.79;83.93
40384;BME280;26097;42.366;23.818;2023-01-06T04:34:48;94457.59;;;6.84;82.43
40384;BME280;26097;42.366;23.818;2023-01-06T04:37:48;94447.84;;;6.89;81.80
40384;BME280;26097;42.366;23.818;2023-01-06T04:40:49;94453.09;;;6.88;82.03
40384;BME280;26097;42.366;23.818;2023-01-06T04:43:49;94468.31;;;6.78;81.67
40384;BME280;26097;42.366;23.818;2023-01-06T04:46:50;94479.84;;;6.88;81.03
40384;BME280;26097;42.366;23.818;2023-01-06T04:49:50;94497.38;;;6.83;81.48
40384;BME280;26097;42.366;23.818;2023-01-06T04:52:50;94496.22;;;6.72;81.49
40384;BME280;26097;42.366;23.818;2023-01-06T04:55:51;94490.88;;;6.76;80.28
40384;BME280;26097;42.366;23.818;2023-01-06T04:58:55;94501.06;;;6.79;80.33
40384;BME280;26097;42.366;23.818;2023-01-06T05:01:55;94515.88;;;6.77;80.49
40384;BME280;26097;42.366;23.818;2023-01-06T05:04:55;94517.78;;;6.73;80.98
40384;BME280;26097;42.366;23.818;2023-01-06T05:07:56;94518.94;;;6.67;81.90
40384;BME280;26097;42.366;23.818;2023-01-06T05:11:00;94519.09;;;6.64;81.96
40384;BME280;26097;42.366;23.818;2023-01-06T05:14:01;94512.25;;;6.63;82.44
40384;BME280;26097;42.366;23.818;2023-01-06T05:17:01;94505.41;;;6.62;82.55
40384;BME280;26097;42.366;23.818;2023-01-06T05:20:02;94507.06;;;6.63;82.70
40384;BME280;26097;42.366;23.818;2023-01-06T05:23:03;94502.56;;;6.67;81.78
40384;BME280;26097;42.366;23.818;2023-01-06T05:26:04;94514.59;;;6.68;81.61
40384;BME280;26097;42.366;23.818;2023-01-06T05:29:05;94518.53;;;6.59;81.48
40384;BME280;26097;42.366;23.818;2023-01-06T05:32:05;94535.91;;;6.57;81.26
40384;BME280;26097;42.366;23.818;2023-01-06T05:35:06;94535.56;;;6.63;81.45
40384;BME280;26097;42.366;23.818;2023-01-06T05:38:06;94543.09;;;6.52;82.33
40384;BME280;26097;42.366;23.818;2023-01-06T05:41:07;94536.81;;;6.56;82.44
40384;BME280;26097;42.366;23.818;2023-01-06T05:44:08;94545.41;;;6.56;82.69
40384;BME280;26097;42.366;23.818;2023-01-06T05:47:08;94545.22;;;6.43;83.41
40384;BME280;26097;42.366;23.818;2023-01-06T05:50:09;94559.31;;;6.38;83.84
40384;BME280;26097;42.366;23.818;2023-01-06T05:53:09;94563.53;;;6.23;84.73
40384;BME280;26097;42.366;23.818;2023-01-06T05:56:12;94565.78;;;6.13;85.24
40384;BME280;26097;42.366;23.818;2023-01-06T05:59:13;94561.28;;;6.17;85.44
40384;BME280;26097;42.366;23.818;2023-01-06T06:02:13;94558.69;;;5.99;85.87
40384;BME280;26097;42.366;23.818;2023-01-06T06:05:14;94560.13;;;5.87;86.78
40384;BME280;26097;42.366;23.818;2023-01-06T06:08:14;94560.59;;;6.13;85.70
40384;BME280;26097;42.366;23.818;2023-01-06T06:11:16;94562.72;;;6.22;84.74
40384;BME280;26097;42.366;23.818;2023-01-06T06:14:18;94574.13;;;6.18;84.71
40384;BME280;26097;42.366;23.818;2023-01-06T06:17:18;94573.84;;;6.24;83.97
40384;BME280;26097;42.366;23.818;2023-01-06T06:20:19;94585.00;;;6.25;83.63
40384;BME280;26097;42.366;23.818;2023-01-06T06:23:19;94601.09;;;6.14;84.19
40384;BME280;26097;42.366;23.818;2023-01-06T06:26:20;94589.75;;;6.17;84.32
40384;BME280;26097;42.366;23.818;2023-01-06T06:29:21;94586.41;;;6.14;84.09
40384;BME280;26097;42.366;23.818;2023-01-06T06:32:21;94590.94;;;6.27;83.50
40384;BME280;26097;42.366;23.818;2023-01-06T06:35:21;94594.31;;;6.29;83.00
40384;BME280;26097;42.366;23.818;2023-01-06T06:38:22;94586.38;;;6.32;82.62
40384;BME280;26097;42.366;23.818;2023-01-06T06:41:23;94583.91;;;6.47;81.48
40384;BME280;26097;42.366;23.818;2023-01-06T06:44:24;94587.41;;;6.46;81.29
40384;BME280;26097;42.366;23.818;2023-01-06T06:47:25;94602.31;;;6.58;80.63
40384;BME280;26097;42.366;23.818;2023-01-06T06:50:25;94597.84;;;6.62;80.00
40384;BME280;26097;42.366;23.818;2023-01-06T06:53:26;94593.47;;;6.62;80.06
40384;BME280;26097;42.366;23.818;2023-01-06T06:56:26;94591.34;;;6.70;78.85
40384;BME280;26097;42.366;23.818;2023-01-06T06:59:27;94596.00;;;6.80;77.78
40384;BME280;26097;42.366;23.818;2023-01-06T07:02:27;94597.28;;;6.89;77.64
40384;BME280;26097;42.366;23.818;2023-01-06T07:05:27;94602.13;;;6.95;76.96
40384;BME280;26097;42.366;23.818;2023-01-06T07:08:29;94601.72;;;7.03;76.55
40384;BME280;26097;42.366;23.818;2023-01-06T07:11:29;94589.50;;;7.05;76.45
40384;BME280;26097;42.366;23.818;2023-01-06T07:14:29;94603.66;;;7.15;74.44
40384;BME280;26097;42.366;23.818;2023-01-06T07:17:30;94594.91;;;7.18;74.46
40384;BME280;26097;42.366;23.818;2023-01-06T07:20:31;94607.28;;;7.28;73.58
40384;BME280;26097;42.366;23.818;2023-01-06T07:23:32;94615.63;;;7.34;72.89
40384;BME280;26097;42.366;23.818;2023-01-06T07:26:33;94614.94;;;7.46;71.83
40384;BME280;26097;42.366;23.818;2023-01-06T07:29:33;94619.63;;;7.55;70.40
40384;BME280;26097;42.366;23.818;2023-01-06T07:32:33;94618.69;;;7.56;70.76
40384;BME280;26097;42.366;23.818;2023-01-06T07:35:34;94627.16;;;7.60;69.81
40384;BME280;26097;42.366;23.818;2023-01-06T07:38:34;94627.13;;;7.76;69.21
40384;BME280;26097;42.366;23.818;2023-01-06T07:41:35;94623.38;;;7.82;68.03
40384;BME280;26097;42.366;23.818;2023-01-06T07:44:35;94643.53;;;7.93;68.73
40384;BME280;26097;42.366;23.818;2023-01-06T07:47:36;94650.03;;;8.00;67.16
40384;BME280;26097;42.366;23.818;2023-01-06T07:50:36;94641.13;;;8.04;67.07
40384;BME280;26097;42.366;23.818;2023-01-06T07:53:36;94639.69;;;8.14;64.86
40384;BME280;26097;42.366;23.818;2023-01-06T07:56:37;94643.16;;;8.29;64.51
40384;BME280;26097;42.366;23.818;2023-01-06T07:59:37;94631.50;;;8.37;63.29
40384;BME280;26097;42.366;23.818;2023-01-06T08:02:38;94626.13;;;8.40;62.64
40384;BME280;26097;42.366;23.818;2023-01-06T08:05:39;94617.88;;;8.48;61.02
40384;BME280;26097;42.366;23.818;2023-01-06T08:08:42;94617.34;;;8.57;60.80
40384;BME280;26097;42.366;23.818;2023-01-06T08:11:43;94620.16;;;8.68;59.97
40384;BME280;26097;42.366;23.818;2023-01-06T08:14:43;94625.16;;;8.71;59.33
40384;BME280;26097;42.366;23.818;2023-01-06T08:17:44;94621.44;;;8.76;59.98
40384;BME280;26097;42.366;23.818;2023-01-06T08:20:44;94622.66;;;8.84;58.59
40384;BME280;26097;42.366;23.818;2023-01-06T08:23:44;94621.06;;;8.96;57.35
40384;BME280;26097;42.366;23.818;2023-01-06T08:26:45;94627.41;;;9.07;57.90
40384;BME280;26097;42.366;23.818;2023-01-06T08:29:45;94635.19;;;9.07;57.57
40384;BME280;26097;42.366;23.818;2023-01-06T08:32:47;94662.69;;;9.11;55.72
40384;BME280;26097;42.366;23.818;2023-01-06T08:35:48;94652.81;;;9.16;54.25
40384;BME280;26097;42.366;23.818;2023-01-06T08:38:49;94654.59;;;9.16;54.32
40384;BME280;26097;42.366;23.818;2023-01-06T08:41:50;94652.56;;;9.21;53.75
40384;BME280;26097;42.366;23.818;2023-01-06T08:44:51;94686.44;;;9.19;52.07
40384;BME280;26097;42.366;23.818;2023-01-06T08:47:51;94645.69;;;9.20;52.80
40384;BME280;26097;42.366;23.818;2023-01-06T08:50:51;94649.41;;;9.16;52.18
40384;BME280;26097;42.366;23.818;2023-01-06T08:53:52;94658.31;;;8.97;52.51
40384;BME280;26097;42.366;23.818;2023-01-06T08:56:52;94664.19;;;8.86;53.65
40384;BME280;26097;42.366;23.818;2023-01-06T08:59:53;94671.66;;;8.91;53.83
40384;BME280;26097;42.366;23.818;2023-01-06T09:02:53;94661.00;;;8.81;53.20
40384;BME280;26097;42.366;23.818;2023-01-06T09:05:55;94657.31;;;8.85;53.76
40384;BME280;26097;42.366;23.818;2023-01-06T09:08:56;94647.53;;;9.03;53.38
40384;BME280;26097;42.366;23.818;2023-01-06T09:11:57;94655.22;;;9.19;52.88
40384;BME280;26097;42.366;23.818;2023-01-06T09:14:57;94647.22;;;9.37;52.14
40384;BME280;26097;42.366;23.818;2023-01-06T09:17:57;94656.34;;;9.44;52.47
40384;BME280;26097;42.366;23.818;2023-01-06T09:20:58;94679.66;;;9.31;52.84
40384;BME280;26097;42.366;23.818;2023-01-06T09:23:58;94641.19;;;9.36;52.82
40384;BME280;26097;42.366;23.818;2023-01-06T09:26:58;94639.88;;;9.43;53.21
40384;BME280;26097;42.366;23.818;2023-01-06T09:29:59;94641.63;;;9.43;53.63
40384;BME280;26097;42.366;23.818;2023-01-06T09:32:59;94634.38;;;9.48;53.47
40384;BME280;26097;42.366;23.818;2023-01-06T09:36:00;94624.84;;;9.62;53.80
40384;BME280;26097;42.366;23.818;2023-01-06T09:39:00;94637.53;;;9.53;53.84
40384;BME280;26097;42.366;23.818;2023-01-06T09:45:36;94612.09;;;9.71;53.52
40384;BME280;26097;42.366;23.818;2023-01-06T09:48:41;94595.38;;;9.76;54.19
40384;BME280;26097;42.366;23.818;2023-01-06T09:51:44;94593.16;;;9.82;54.34
40384;BME280;26097;42.366;23.818;2023-01-06T09:54:58;94590.19;;;9.89;53.81
40384;BME280;26097;42.366;23.818;2023-01-06T09:58:11;94589.97;;;9.92;54.30
40384;BME280;26097;42.366;23.818;2023-01-06T10:01:14;94581.22;;;9.80;53.87
40384;BME280;26097;42.366;23.818;2023-01-06T10:04:24;94583.16;;;9.76;53.16
40384;BME280;26097;42.366;23.818;2023-01-06T10:07:44;94574.03;;;9.83;53.75
40384;BME280;26097;42.366;23.818;2023-01-06T10:14:17;94551.88;;;9.91;52.85
40384;BME280;26097;42.366;23.818;2023-01-06T10:24:13;94559.44;;;9.81;52.56
40384;BME280;26097;42.366;23.818;2023-01-06T10:27:25;94553.75;;;9.89;52.44
40384;BME280;26097;42.366;23.818;2023-01-06T10:30:30;94545.41;;;9.83;52.43
40384;BME280;26097;42.366;23.818;2023-01-06T10:33:36;94548.91;;;9.82;51.79
40384;BME280;26097;42.366;23.818;2023-01-06T10:36:42;94547.81;;;9.86;52.58
40384;BME280;26097;42.366;23.818;2023-01-06T10:39:48;94562.47;;;9.88;52.38
40384;BME280;26097;42.366;23.818;2023-01-06T10:43:08;94539.78;;;9.90;52.16
40384;BME280;26097;42.366;23.818;2023-01-06T10:46:10;94535.22;;;10.06;51.84
40384;BME280;26097;42.366;23.818;2023-01-06T10:49:15;94533.56;;;10.05;51.65
40384;BME280;26097;42.366;23.818;2023-01-06T10:52:18;94531.25;;;10.00;51.06
40384;BME280;26097;42.366;23.818;2023-01-06T10:58:41;94536.47;;;10.13;51.53
40384;BME280;26097;42.366;23.818;2023-01-06T11:01:52;94521.91;;;10.24;51.15
40384;BME280;26097;42.366;23.818;2023-01-06T11:04:53;94525.63;;;10.20;51.15
40384;BME280;26097;42.366;23.818;2023-01-06T11:11:00;94520.63;;;10.29;51.50
40384;BME280;26097;42.366;23.818;2023-01-06T11:14:02;94530.03;;;10.32;51.41
40384;BME280;26097;42.366;23.818;2023-01-06T11:17:08;94540.03;;;10.38;51.39
40384;BME280;26097;42.366;23.818;2023-01-06T11:23:19;94525.25;;;10.26;50.88
40384;BME280;26097;42.366;23.818;2023-01-06T11:26:20;94531.91;;;10.30;50.42
40384;BME280;26097;42.366;23.818;2023-01-06T11:29:26;94541.53;;;10.42;50.50
40384;BME280;26097;42.366;23.818;2023-01-06T11:32:28;94527.13;;;10.50;50.63
40384;BME280;26097;42.366;23.818;2023-01-06T11:35:31;94532.44;;;10.61;50.26
40384;BME280;26097;42.366;23.818;2023-01-06T11:38:39;94536.59;;;10.77;49.59
40384;BME280;26097;42.366;23.818;2023-01-06T11:41:44;94532.75;;;10.69;50.18
40384;BME280;26097;42.366;23.818;2023-01-06T11:44:45;94534.28;;;10.85;50.09
40384;BME280;26097;42.366;23.818;2023-01-06T11:47:47;94519.56;;;10.97;49.92
40384;BME280;26097;42.366;23.818;2023-01-06T11:50:53;94522.19;;;11.21;49.69
40384;BME280;26097;42.366;23.818;2023-01-06T11:53:55;94538.41;;;11.38;49.32
40384;BME280;26097;42.366;23.818;2023-01-06T11:56:58;94521.03;;;11.25;48.91
40384;BME280;26097;42.366;23.818;2023-01-06T12:03:30;94517.53;;;11.13;48.94
40384;BME280;26097;42.366;23.818;2023-01-06T12:06:40;94523.06;;;11.09;48.59
40384;BME280;26097;42.366;23.818;2023-01-06T12:09:43;94510.25;;;11.06;48.60
40384;BME280;26097;42.366;23.818;2023-01-06T12:12:47;94514.97;;;11.25;48.90
40384;BME280;26097;42.366;23.818;2023-01-06T12:16:13;94516.63;;;11.02;48.49
40384;BME280;26097;42.366;23.818;2023-01-06T12:19:21;94515.59;;;10.91;49.39
40384;BME280;26097;42.366;23.818;2023-01-06T12:25:45;94528.75;;;10.77;49.35
40384;BME280;26097;42.366;23.818;2023-01-06T12:28:49;94505.00;;;10.68;49.86
40384;BME280;26097;42.366;23.818;2023-01-06T12:31:56;94513.56;;;10.70;49.86
40384;BME280;26097;42.366;23.818;2023-01-06T12:34:59;94501.47;;;10.69;49.59
40384;BME280;26097;42.366;23.818;2023-01-06T12:41:38;94527.09;;;10.76;49.02
40384;BME280;26097;42.366;23.818;2023-01-06T12:45:00;94517.50;;;10.76;49.16
40384;BME280;26097;42.366;23.818;2023-01-06T12:48:10;94544.31;;;10.78;48.91
40384;BME280;26097;42.366;23.818;2023-01-06T12:51:29;94540.28;;;10.61;48.85
40384;BME280;26097;42.366;23.818;2023-01-06T12:54:33;94561.13;;;10.61;49.01
40384;BME280;26097;42.366;23.818;2023-01-06T13:01:29;94557.38;;;10.65;49.61
40384;BME280;26097;42.366;23.818;2023-01-06T13:04:42;94556.13;;;10.71;49.07
40384;BME280;26097;42.366;23.818;2023-01-06T13:07:50;94560.56;;;10.69;49.49
40384;BME280;26097;42.366;23.818;2023-01-06T13:11:27;94560.72;;;10.54;49.45
40384;BME280;26097;42.366;23.818;2023-01-06T13:14:53;94563.28;;;10.41;50.06
40384;BME280;26097;42.366;23.818;2023-01-06T13:21:20;94566.91;;;10.26;49.86
40384;BME280;26097;42.366;23.818;2023-01-06T13:24:28;94569.91;;;10.20;50.29
40384;BME280;26097;42.366;23.818;2023-01-06T13:27:40;94560.84;;;10.12;51.06
40384;BME280;26097;42.366;23.818;2023-01-06T13:40:19;94582.31;;;10.03;51.95
40384;BME280;26097;42.366;23.818;2023-01-06T13:43:25;94601.66;;;9.99;51.82
40384;BME280;26097;42.366;23.818;2023-01-06T13:46:27;94600.97;;;9.82;51.92
40384;BME280;26097;42.366;23.818;2023-01-06T13:49:30;94592.66;;;9.77;52.08
40384;BME280;26097;42.366;23.818;2023-01-06T13:52:31;94579.09;;;9.72;52.25
40384;BME280;26097;42.366;23.818;2023-01-06T13:55:33;94579.84;;;9.74;52.38
40384;BME280;26097;42.366;23.818;2023-01-06T13:58:44;94577.06;;;9.63;52.15
40384;BME280;26097;42.366;23.818;2023-01-06T14:01:45;94589.47;;;9.59;52.35
40384;BME280;26097;42.366;23.818;2023-01-06T14:04:46;94594.97;;;9.54;52.04
40384;BME280;26097;42.366;23.818;2023-01-06T14:07:54;94594.63;;;9.46;52.35
40384;BME280;26097;42.366;23.818;2023-01-06T14:10:59;94592.69;;;9.35;52.41
40384;BME280;26097;42.366;23.818;2023-01-06T14:14:03;94607.84;;;9.28;52.38
40384;BME280;26097;42.366;23.818;2023-01-06T14:17:05;94614.34;;;9.21;52.64
40384;BME280;26097;42.366;23.818;2023-01-06T14:20:37;94617.53;;;9.12;53.03
40384;BME280;26097;42.366;23.818;2023-01-06T14:23:47;94613.19;;;8.98;53.94
40384;BME280;26097;42.366;23.818;2023-01-06T14:26:52;94630.53;;;8.97;52.89
40384;BME280;26097;42.366;23.818;2023-01-06T14:30:01;94631.94;;;8.89;52.78
40384;BME280;26097;42.366;23.818;2023-01-06T14:36:14;94635.44;;;8.73;53.35
40384;BME280;26097;42.366;23.818;2023-01-06T14:39:21;94637.41;;;8.55;53.88
40384;BME280;26097;42.366;23.818;2023-01-06T14:42:37;94643.13;;;8.46;54.21
40384;BME280;26097;42.366;23.818;2023-01-06T14:45:39;94663.75;;;8.33;54.49
40384;BME280;26097;42.366;23.818;2023-01-06T14:48:44;94651.97;;;8.27;54.85
40384;BME280;26097;42.366;23.818;2023-01-06T14:51:49;94654.09;;;8.20;55.18
40384;BME280;26097;42.366;23.818;2023-01-06T14:54:52;94660.09;;;8.06;55.81
40384;BME280;26097;42.366;23.818;2023-01-06T14:57:52;94658.53;;;7.88;56.73
40384;BME280;26097;42.366;23.818;2023-01-06T15:00:53;94671.44;;;7.73;57.21
40384;BME280;26097;42.366;23.818;2023-01-06T15:03:57;94681.88;;;7.71;57.66
40384;BME280;26097;42.366;23.818;2023-01-06T15:07:02;94682.47;;;7.61;58.56
40384;BME280;26097;42.366;23.818;2023-01-06T15:10:23;94665.97;;;7.62;58.73
40384;BME280;26097;42.366;23.818;2023-01-06T15:16:37;94657.97;;;7.50;59.48
40384;BME280;26097;42.366;23.818;2023-01-06T15:19:41;94660.63;;;7.33;59.44
40384;BME280;26097;42.366;23.818;2023-01-06T15:22:46;94680.34;;;7.19;60.63
40384;BME280;26097;42.366;23.818;2023-01-06T15:25:52;94667.84;;;7.27;60.76
40384;BME280;26097;42.366;23.818;2023-01-06T15:29:13;94675.66;;;7.10;61.78
40384;BME280;26097;42.366;23.818;2023-01-06T15:32:15;94677.50;;;7.08;61.54
40384;BME280;26097;42.366;23.818;2023-01-06T15:35:21;94679.06;;;6.94;62.48
40384;BME280;26097;42.366;23.818;2023-01-06T15:41:23;94684.44;;;6.74;64.02
40384;BME280;26097;42.366;23.818;2023-01-06T15:44:34;94676.47;;;6.94;63.06
40384;BME280;26097;42.366;23.818;2023-01-06T15:47:38;94675.63;;;6.94;63.27
40384;BME280;26097;42.366;23.818;2023-01-06T15:50:41;94676.25;;;6.99;63.35
40384;BME280;26097;42.366;23.818;2023-01-06T15:53:42;94674.13;;;7.06;62.97
40384;BME280;26097;42.366;23.818;2023-01-06T15:56:43;94681.81;;;6.91;63.90
40384;BME280;26097;42.366;23.818;2023-01-06T15:59:55;94679.97;;;6.93;63.55
40384;BME280;26097;42.366;23.818;2023-01-06T16:02:56;94681.28;;;6.84;63.39
40384;BME280;26097;42.366;23.818;2023-01-06T16:06:11;94680.91;;;6.92;63.32
40384;BME280;26097;42.366;23.818;2023-01-06T16:12:18;94686.31;;;6.88;62.90
40384;BME280;26097;42.366;23.818;2023-01-06T16:15:33;94689.88;;;6.85;62.63
40384;BME280;26097;42.366;23.818;2023-01-06T16:18:35;94701.16;;;6.84;62.87
40384;BME280;26097;42.366;23.818;2023-01-06T16:21:37;94692.38;;;6.70;62.92
40384;BME280;26097;42.366;23.818;2023-01-06T16:24:37;94691.91;;;6.62;62.92
40384;BME280;26097;42.366;23.818;2023-01-06T16:27:37;94708.03;;;6.67;62.30
40384;BME280;26097;42.366;23.818;2023-01-06T16:30:38;94696.31;;;6.78;61.82
40384;BME280;26097;42.366;23.818;2023-01-06T16:33:41;94714.13;;;6.84;62.23
40384;BME280;26097;42.366;23.818;2023-01-06T16:36:45;94706.19;;;6.87;62.22
40384;BME280;26097;42.366;23.818;2023-01-06T16:39:46;94722.66;;;6.86;62.38
40384;BME280;26097;42.366;23.818;2023-01-06T16:42:47;94706.88;;;6.91;61.90
40384;BME280;26097;42.366;23.818;2023-01-06T16:45:48;94713.06;;;6.88;62.26
40384;BME280;26097;42.366;23.818;2023-01-06T16:48:53;94720.75;;;6.90;61.86
40384;BME280;26097;42.366;23.818;2023-01-06T16:51:54;94720.59;;;6.93;61.88
40384;BME280;26097;42.366;23.818;2023-01-06T16:54:55;94728.06;;;6.99;61.91
40384;BME280;26097;42.366;23.818;2023-01-06T16:57:57;94717.78;;;6.80;62.74
40384;BME280;26097;42.366;23.818;2023-01-06T17:01:04;94718.28;;;6.70;63.31
40384;BME280;26097;42.366;23.818;2023-01-06T17:04:08;94722.06;;;6.46;63.59
40384;BME280;26097;42.366;23.818;2023-01-06T17:07:12;94728.78;;;6.14;65.08
40384;BME280;26097;42.366;23.818;2023-01-06T17:10:23;94733.69;;;5.82;66.31
40384;BME280;26097;42.366;23.818;2023-01-06T17:13:25;94736.09;;;5.49;67.83
40384;BME280;26097;42.366;23.818;2023-01-06T17:16:38;94735.09;;;5.13;71.81
40384;BME280;26097;42.366;23.818;2023-01-06T17:19:40;94735.78;;;4.77;72.21
40384;BME280;26097;42.366;23.818;2023-01-06T17:22:40;94733.97;;;4.58;74.06
40384;BME280;26097;42.366;23.818;2023-01-06T17:25:42;94738.91;;;5.04;75.30
40384;BME280;26097;42.366;23.818;2023-01-06T17:28:43;94738.75;;;5.28;73.28
40384;BME280;26097;42.366;23.818;2023-01-06T17:31:46;94737.06;;;5.65;72.73
40384;BME280;26097;42.366;23.818;2023-01-06T17:34:48;94735.50;;;5.80;72.82
40384;BME280;26097;42.366;23.818;2023-01-06T17:37:48;94751.16;;;5.96;71.37
40384;BME280;26097;42.366;23.818;2023-01-06T17:40:50;94750.06;;;6.02;71.47
40384;BME280;26097;42.366;23.818;2023-01-06T17:43:50;94753.56;;;6.01;71.18